KCOM

Details ICAO KCOM
Name COLEMAN MUNI
Region United States
Timezone America/Chicago (UTC-6.0)
Plans Departing 1
Arriving 3
Stats Elevation 1,697 ft / 517 m (AMSL)
Location 31.841141° -99.403610°
Runways 1
Magnetic Variation 4.787° E
Sunrise 2017-12-17 13:33:05 UTC / 2017-12-17 07:33:05 Local
Sunset 2017-12-17 23:37:23 UTC / 2017-12-17 17:37:23 Local
Advertisement - Login to hide

Runways

ID Width Length Bearing (true) Bearing (mag) Surface Threshold Offset Overrun Length
15 75 ft / 23 m 4,513 ft / 1,376 m 155.26° 150.47° Asphalt 0 ft / 0 m 0 ft / 0 m
33 75 ft / 23 m 4,513 ft / 1,376 m 335.27° 330.48° Asphalt 0 ft / 0 m 0 ft / 0 m

Map

Weather


0- 5 10 15 20 25 30 35+ Temperature / ° C

Clouds and Precipitation
Forecast for 2017-12-18 06:00 UTC. Updated 39 minutes ago

Ground ~20,000 ft ~40,000 ft Winds

METAR

KCOM 180135Z AUTO 00000KT 10SM CLR 11/05 A3006 RMK AO2 T01050054

TAF

Not found

Frequencies

Unicom 122.80 MHz CTAF/UNICOM
Warning: Do not use this data for real-world aviation or navigation. No guarantee of current accuracy is given.